createdAt,value
2017-01-18T00:01:46.495Z,0
2017-01-18T00:02:46.508Z,0
2017-01-18T00:03:46.519Z,0
2017-01-18T00:04:46.533Z,0
2017-01-18T00:05:46.544Z,0
2017-01-18T00:07:01.473Z,0
2017-01-18T00:07:46.567Z,0
2017-01-18T00:08:46.581Z,0
2017-01-18T00:09:46.594Z,0
2017-01-18T00:10:46.607Z,0
2017-01-18T00:11:46.619Z,0
2017-01-18T00:12:46.632Z,0
2017-01-18T00:13:46.640Z,0
2017-01-18T00:14:46.654Z,0
2017-01-18T00:15:46.666Z,0
2017-01-18T00:17:01.596Z,0
2017-01-18T00:17:46.689Z,0
2017-01-18T00:19:01.619Z,0
2017-01-18T00:19:46.715Z,0
2017-01-18T00:20:46.728Z,0
2017-01-18T00:22:01.657Z,0
2017-01-18T00:22:46.756Z,0
2017-01-18T00:23:46.762Z,0
2017-01-18T00:24:46.776Z,0
2017-01-18T00:25:46.790Z,0
2017-01-18T00:26:46.803Z,0
2017-01-18T00:27:46.810Z,0
2017-01-18T00:28:46.832Z,0
2017-01-18T00:29:47.040Z,0
2017-01-18T00:30:46.849Z,0
2017-01-18T00:31:46.859Z,0
2017-01-18T00:32:46.876Z,0
2017-01-18T00:33:46.889Z,0
2017-01-18T00:34:46.899Z,0
2017-01-18T00:35:46.909Z,0
2017-01-18T00:36:46.922Z,0
2017-01-18T00:37:46.937Z,0
2017-01-18T00:38:46.995Z,0
2017-01-18T00:39:46.958Z,0
2017-01-18T00:40:46.974Z,0
2017-01-18T00:41:46.981Z,0
2017-01-18T00:42:46.994Z,0
2017-01-18T00:43:47.007Z,0
2017-01-18T00:45:01.934Z,0
2017-01-18T00:45:47.031Z,0
2017-01-18T00:46:47.040Z,0
2017-01-18T00:47:47.066Z,0
2017-01-18T00:48:47.067Z,0
2017-01-18T00:49:47.083Z,0
2017-01-18T00:50:47.090Z,0
2017-01-18T00:51:47.102Z,0
2017-01-18T00:52:47.120Z,0
2017-01-18T00:54:02.046Z,0
2017-01-18T00:54:47.140Z,0
2017-01-18T00:55:47.153Z,0
2017-01-18T00:56:47.164Z,0
2017-01-18T00:58:02.094Z,0
2017-01-18T00:59:02.106Z,0
2017-01-18T01:00:02.126Z,0
2017-01-18T01:01:02.127Z,0
2017-01-18T01:01:47.222Z,0
2017-01-18T01:02:47.234Z,0
2017-01-18T01:03:47.249Z,0
2017-01-18T01:04:47.264Z,0
2017-01-18T01:06:02.187Z,0
2017-01-18T01:06:47.283Z,0
2017-01-18T01:07:47.293Z,0
2017-01-18T01:08:47.310Z,0
2017-01-18T01:10:02.236Z,0
2017-01-18T01:10:47.338Z,0
2017-01-18T01:11:47.342Z,0
2017-01-18T01:12:47.355Z,0
2017-01-18T01:13:47.367Z,0
2017-01-18T01:14:47.383Z,0
2017-01-18T01:16:02.307Z,0
2017-01-18T01:16:47.402Z,0
2017-01-18T01:17:47.421Z,0
2017-01-18T01:18:47.426Z,0
2017-01-18T01:19:47.436Z,0
2017-01-18T01:21:02.368Z,0
2017-01-18T01:21:47.464Z,0
2017-01-18T01:23:02.390Z,0
2017-01-18T01:23:47.485Z,0
2017-01-18T01:24:47.497Z,0
2017-01-18T01:26:02.428Z,0
2017-01-18T01:26:47.519Z,0
2017-01-18T01:27:47.535Z,0
2017-01-18T01:28:47.571Z,0
2017-01-18T01:30:02.475Z,0
2017-01-18T01:30:47.566Z,0
2017-01-18T01:31:47.581Z,0
2017-01-18T01:32:47.591Z,0
2017-01-18T01:33:47.603Z,0
2017-01-18T01:34:47.617Z,0
2017-01-18T01:35:47.626Z,0
2017-01-18T01:36:47.639Z,0
2017-01-18T01:37:47.680Z,0
2017-01-18T01:38:47.662Z,0
2017-01-18T01:40:47.686Z,0
2017-01-18T01:42:02.614Z,0
2017-01-18T01:42:47.711Z,0
2017-01-18T01:43:47.725Z,0
2017-01-18T01:44:47.764Z,0
2017-01-18T01:45:47.745Z,0
2017-01-18T01:46:47.759Z,0
2017-01-18T01:47:47.768Z,0
2017-01-18T01:48:48.173Z,0
2017-01-18T01:49:47.791Z,0
2017-01-18T01:50:47.805Z,0
2017-01-18T01:51:47.817Z,0
2017-01-18T01:52:47.831Z,0
2017-01-18T01:53:47.840Z,0
2017-01-18T01:54:47.852Z,0
2017-01-18T01:55:47.867Z,0
2017-01-18T01:57:02.792Z,0
2017-01-18T01:57:47.886Z,0
2017-01-18T01:58:47.901Z,0
2017-01-18T01:59:47.910Z,0
2017-01-18T02:01:02.841Z,0
2017-01-18T02:01:47.938Z,0
2017-01-18T02:02:47.947Z,0
2017-01-18T02:03:47.957Z,0
2017-01-18T02:04:47.969Z,0
2017-01-18T02:06:02.896Z,0
2017-01-18T02:07:02.911Z,0
2017-01-18T02:07:48.056Z,0
2017-01-18T02:08:48.015Z,0
2017-01-18T02:09:48.029Z,0
2017-01-18T02:10:48.092Z,0
2017-01-18T02:11:48.052Z,0
2017-01-18T02:12:48.113Z,0
2017-01-18T02:13:48.076Z,0
2017-01-18T02:14:48.089Z,0
2017-01-18T02:16:03.018Z,0
2017-01-18T02:16:48.107Z,0
2017-01-18T02:17:48.123Z,0
2017-01-18T02:18:48.134Z,0
2017-01-18T02:20:03.061Z,0
2017-01-18T02:20:48.158Z,0
2017-01-18T02:21:48.170Z,0
2017-01-18T02:23:48.196Z,0
2017-01-18T02:25:48.214Z,0
2017-01-18T02:26:48.227Z,0
2017-01-18T02:27:48.236Z,0
2017-01-18T02:29:18.088Z,0
2017-01-18T02:29:48.263Z,0
2017-01-18T02:30:48.276Z,0
2017-01-18T02:31:48.292Z,0
2017-01-18T02:32:48.326Z,0
2017-01-18T02:34:03.226Z,0
2017-01-18T02:35:03.237Z,0
2017-01-18T02:36:03.247Z,0
2017-01-18T02:37:48.353Z,0
2017-01-18T02:39:03.284Z,0
2017-01-18T02:40:03.293Z,0
2017-01-18T02:40:48.391Z,0
2017-01-18T02:41:48.401Z,0
2017-01-18T02:43:03.328Z,0
2017-01-18T02:43:48.427Z,0
2017-01-18T02:45:03.350Z,0
2017-01-18T02:45:48.446Z,0
2017-01-18T02:46:48.847Z,0
2017-01-18T02:47:48.471Z,0
2017-01-18T02:48:48.482Z,0
2017-01-18T02:49:48.492Z,0
2017-01-18T02:51:03.421Z,0
2017-01-18T02:51:48.515Z,0
2017-01-18T02:52:48.528Z,0
2017-01-18T02:53:48.538Z,0
2017-01-18T02:54:48.555Z,0
2017-01-18T02:55:48.565Z,0
2017-01-18T02:56:48.574Z,0
2017-01-18T02:57:48.585Z,0
2017-01-18T02:58:48.598Z,0
2017-01-18T02:59:48.608Z,0
2017-01-18T03:01:03.535Z,0
2017-01-18T03:01:48.636Z,0
2017-01-18T03:02:48.642Z,0
2017-01-18T03:03:48.656Z,0
2017-01-18T03:04:48.666Z,0
2017-01-18T03:05:48.676Z,0
2017-01-18T03:07:03.605Z,0
2017-01-18T03:07:48.701Z,0
2017-01-18T03:08:48.712Z,0
2017-01-18T03:09:48.721Z,0
2017-01-18T03:11:03.653Z,0
2017-01-18T03:12:03.664Z,0
2017-01-18T03:12:48.758Z,0
2017-01-18T03:14:48.784Z,0
2017-01-18T03:15:48.798Z,0
2017-01-18T03:17:03.726Z,0
2017-01-18T03:17:48.816Z,0
2017-01-18T03:18:48.829Z,0
2017-01-18T03:19:48.837Z,0
2017-01-18T03:20:48.852Z,0
2017-01-18T03:21:48.867Z,0
2017-01-18T03:22:48.876Z,0
2017-01-18T03:24:03.802Z,0
2017-01-18T03:24:48.897Z,0
2017-01-18T03:25:48.908Z,0
2017-01-18T03:26:48.922Z,0
2017-01-18T03:27:48.934Z,0
2017-01-18T03:28:48.946Z,0
2017-01-18T03:29:48.964Z,0
2017-01-18T03:30:48.970Z,0
2017-01-18T03:32:03.898Z,0
2017-01-18T03:32:48.991Z,0
2017-01-18T03:33:49.002Z,0
2017-01-18T03:34:49.018Z,0
2017-01-18T03:35:49.026Z,0
2017-01-18T03:36:49.037Z,0
2017-01-18T03:37:49.052Z,0
2017-01-18T03:38:49.061Z,0
2017-01-18T03:39:49.075Z,0
2017-01-18T03:40:49.083Z,0
2017-01-18T03:41:49.100Z,0
2017-01-18T03:43:49.117Z,0
2017-01-18T03:45:04.047Z,0
2017-01-18T03:45:49.142Z,0
2017-01-18T03:46:49.156Z,0
2017-01-18T03:47:49.168Z,0
2017-01-18T03:48:49.175Z,0
2017-01-18T03:49:49.189Z,0
2017-01-18T03:50:49.212Z,0
2017-01-18T03:52:04.132Z,0
2017-01-18T03:52:49.222Z,0
2017-01-18T03:53:49.240Z,0
2017-01-18T03:54:49.250Z,0
2017-01-18T03:55:49.259Z,0
2017-01-18T03:56:49.270Z,0
2017-01-18T03:58:04.199Z,0
2017-01-18T03:59:04.213Z,0
2017-01-18T04:00:49.316Z,0
2017-01-18T04:01:49.333Z,0
2017-01-18T04:02:49.347Z,0
2017-01-18T04:04:04.271Z,0
2017-01-18T04:04:49.364Z,0
2017-01-18T04:06:04.318Z,0
2017-01-18T04:06:49.387Z,0
2017-01-18T04:07:49.400Z,0
2017-01-18T04:08:49.413Z,0
2017-01-18T04:09:49.426Z,0
2017-01-18T04:10:49.433Z,0
2017-01-18T04:12:04.366Z,0
2017-01-18T04:12:49.459Z,0
2017-01-18T04:13:49.467Z,0
2017-01-18T04:14:49.488Z,0
2017-01-18T04:15:49.496Z,0
2017-01-18T04:17:49.520Z,0
2017-01-18T04:18:49.528Z,0
2017-01-18T04:20:04.457Z,0
2017-01-18T04:20:49.586Z,0
2017-01-18T04:21:49.586Z,0
2017-01-18T04:22:49.575Z,0
2017-01-18T04:23:49.588Z,0
2017-01-18T04:24:49.602Z,0
2017-01-18T04:26:04.526Z,0
2017-01-18T04:27:04.537Z,0
2017-01-18T04:28:04.548Z,0
2017-01-18T04:28:49.645Z,0
2017-01-18T04:31:04.909Z,0
2017-01-18T04:32:04.598Z,0
2017-01-18T04:32:49.712Z,0
2017-01-18T04:33:49.707Z,0
2017-01-18T04:34:49.715Z,0
2017-01-18T04:36:04.643Z,0
2017-01-18T04:36:49.769Z,0
2017-01-18T04:37:49.752Z,0
2017-01-18T04:38:49.759Z,0
2017-01-18T04:39:49.772Z,0
2017-01-18T04:41:04.703Z,0
2017-01-18T04:41:49.799Z,0
2017-01-18T04:42:49.810Z,0
2017-01-18T04:44:04.735Z,0
2017-01-18T04:44:49.832Z,0
2017-01-18T04:45:49.844Z,0
2017-01-18T04:46:49.854Z,0
2017-01-18T04:47:49.868Z,0
2017-01-18T04:48:49.882Z,0
2017-01-18T04:49:49.896Z,0
2017-01-18T04:50:49.902Z,0
2017-01-18T04:52:04.832Z,0
2017-01-18T04:52:49.927Z,0
2017-01-18T04:54:04.892Z,0
2017-01-18T04:54:49.949Z,0
2017-01-18T04:56:04.883Z,0
2017-01-18T04:56:49.976Z,0
2017-01-18T04:57:49.988Z,0
2017-01-18T04:58:49.998Z,0
2017-01-18T05:00:04.926Z,0
2017-01-18T05:00:50.031Z,0
2017-01-18T05:03:04.962Z,0
2017-01-18T05:05:50.080Z,0
2017-01-18T05:07:05.014Z,0
2017-01-18T05:07:50.110Z,0
2017-01-18T05:08:50.119Z,0
2017-01-18T05:09:50.129Z,0
2017-01-18T05:10:50.171Z,0
2017-01-18T05:11:50.157Z,0
2017-01-18T05:13:05.083Z,0
2017-01-18T05:13:50.178Z,0
2017-01-18T05:14:50.188Z,0
2017-01-18T05:15:50.200Z,0
2017-01-18T05:16:50.211Z,0
2017-01-18T05:18:50.240Z,0
2017-01-18T05:19:50.249Z,0
2017-01-18T05:20:50.261Z,0
2017-01-18T05:21:50.283Z,0
2017-01-18T05:22:50.289Z,0
2017-01-18T05:23:50.295Z,0
2017-01-18T05:24:50.309Z,0
2017-01-18T05:25:50.320Z,0
2017-01-18T05:26:50.330Z,0
2017-01-18T05:27:50.344Z,0
2017-01-18T05:28:50.357Z,0
2017-01-18T05:29:50.369Z,0
2017-01-18T05:31:05.296Z,0
2017-01-18T05:31:50.393Z,0
2017-01-18T05:32:50.402Z,0
2017-01-18T05:33:50.419Z,0
2017-01-18T05:35:05.344Z,0
2017-01-18T05:35:50.445Z,0
2017-01-18T05:36:50.453Z,0
2017-01-18T05:37:50.470Z,0
2017-01-18T05:39:05.403Z,0
2017-01-18T05:39:50.489Z,0
2017-01-18T05:40:50.501Z,0
2017-01-18T05:41:50.512Z,0
2017-01-18T05:42:50.525Z,0
2017-01-18T05:43:50.544Z,0
2017-01-18T05:45:05.466Z,0
2017-01-18T05:45:50.568Z,0
2017-01-18T05:46:50.575Z,0
2017-01-18T05:48:50.598Z,0
2017-01-18T05:50:05.529Z,0
2017-01-18T05:50:50.627Z,0
2017-01-18T05:51:50.632Z,0
2017-01-18T05:52:50.645Z,0
2017-01-18T05:53:50.660Z,0
2017-01-18T05:55:05.586Z,0
2017-01-18T05:55:50.681Z,0
2017-01-18T05:56:50.695Z,0
2017-01-18T05:57:50.707Z,0
2017-01-18T05:58:50.717Z,0
2017-01-18T05:59:50.734Z,0
2017-01-18T06:00:50.745Z,0
2017-01-18T06:02:05.671Z,0
2017-01-18T06:02:50.767Z,0
2017-01-18T06:03:50.778Z,0
2017-01-18T06:04:50.794Z,0
2017-01-18T06:06:05.721Z,0
2017-01-18T06:07:50.831Z,0
2017-01-18T06:08:50.848Z,0
2017-01-18T06:09:50.849Z,0
2017-01-18T06:11:05.778Z,0
2017-01-18T06:11:50.875Z,0
2017-01-18T06:12:50.886Z,0
2017-01-18T06:13:50.906Z,0
2017-01-18T06:14:50.912Z,0
2017-01-18T06:15:50.927Z,0
2017-01-18T06:17:05.853Z,0
2017-01-18T06:17:50.947Z,0
2017-01-18T06:18:50.960Z,0
2017-01-18T06:19:50.971Z,0
2017-01-18T06:21:05.904Z,0
2017-01-18T06:21:50.996Z,0
2017-01-18T06:22:51.010Z,0
2017-01-18T06:24:51.035Z,0
2017-01-18T06:25:51.044Z,0
2017-01-18T06:27:05.974Z,0
2017-01-18T06:27:51.071Z,0
2017-01-18T06:28:51.082Z,0
2017-01-18T06:29:51.096Z,0
2017-01-18T06:30:51.107Z,4
2017-01-18T06:31:51.125Z,4
2017-01-18T06:32:51.130Z,0
2017-01-18T06:33:51.147Z,0
2017-01-18T06:34:51.180Z,4
2017-01-18T06:35:51.167Z,0
2017-01-18T06:36:51.179Z,4
2017-01-18T06:37:51.191Z,4
2017-01-18T06:39:06.126Z,4
2017-01-18T06:39:51.220Z,8
2017-01-18T06:40:51.228Z,4
2017-01-18T06:42:06.160Z,4
2017-01-18T06:42:51.257Z,8
2017-01-18T06:43:51.266Z,8
2017-01-18T06:44:51.284Z,8
2017-01-18T06:45:51.288Z,12
2017-01-18T06:47:06.221Z,16
2017-01-18T06:48:06.233Z,16
2017-01-18T06:48:51.323Z,20
2017-01-18T06:50:51.353Z,20
2017-01-18T06:52:06.282Z,24
2017-01-18T06:52:51.380Z,24
2017-01-18T06:53:51.797Z,32
2017-01-18T06:55:06.317Z,32
2017-01-18T06:55:51.412Z,36
2017-01-18T06:56:51.425Z,44
2017-01-18T06:57:51.439Z,44
2017-01-18T06:58:51.450Z,52
2017-01-18T06:59:51.468Z,56
2017-01-18T07:00:51.475Z,64
2017-01-18T07:01:51.488Z,68
2017-01-18T07:02:51.499Z,76
2017-01-18T07:05:06.439Z,88
2017-01-18T07:06:06.456Z,96
2017-01-18T07:06:51.547Z,104
2017-01-18T07:07:51.559Z,112
2017-01-18T07:09:06.491Z,120
2017-01-18T07:09:51.587Z,128
2017-01-18T07:10:51.600Z,136
2017-01-18T07:11:51.616Z,148
2017-01-18T07:12:51.621Z,156
2017-01-18T07:14:06.552Z,172
2017-01-18T07:14:51.648Z,180
2017-01-18T07:16:51.667Z,204
2017-01-18T07:18:06.601Z,224
2017-01-18T07:18:51.692Z,236
2017-01-18T07:19:51.709Z,256
2017-01-18T07:20:51.719Z,276
2017-01-18T07:22:06.647Z,304
2017-01-18T07:22:51.742Z,320
2017-01-18T07:23:51.755Z,340
2017-01-18T07:24:51.771Z,360
2017-01-18T07:25:51.783Z,384
2017-01-18T07:26:51.792Z,416
2017-01-18T07:27:51.806Z,444
2017-01-18T07:28:51.817Z,456
2017-01-18T07:30:06.747Z,484
2017-01-18T07:30:51.845Z,500
2017-01-18T07:31:51.857Z,516
2017-01-18T07:32:51.867Z,532
2017-01-18T07:33:51.878Z,548
2017-01-18T07:34:51.888Z,564
2017-01-18T07:35:51.904Z,576
2017-01-18T07:36:51.921Z,568
2017-01-18T07:37:51.927Z,564
2017-01-18T07:38:51.939Z,576
2017-01-18T07:40:06.874Z,604
2017-01-18T07:41:51.978Z,660
2017-01-18T07:42:51.991Z,696
2017-01-18T07:43:52.006Z,740
2017-01-18T07:44:52.016Z,768
2017-01-18T07:46:06.943Z,820
2017-01-18T07:46:52.039Z,916
2017-01-18T07:47:52.051Z,1012
2017-01-18T07:48:52.071Z,1068
2017-01-18T07:49:52.074Z,1128
2017-01-18T07:50:52.087Z,1144
2017-01-18T07:52:07.017Z,1168
2017-01-18T07:52:52.114Z,1140
2017-01-18T07:54:07.041Z,1012
2017-01-18T07:54:52.136Z,984
2017-01-18T07:55:52.151Z,988
2017-01-18T07:56:52.165Z,1012
2017-01-18T07:57:52.177Z,1008
2017-01-18T07:58:52.188Z,1012
2017-01-18T07:59:52.215Z,1020
2017-01-18T08:02:07.142Z,1100
2017-01-18T08:02:52.243Z,1128
2017-01-18T08:03:52.250Z,1152
2017-01-18T08:04:52.263Z,1164
2017-01-18T08:05:52.275Z,1180
2017-01-18T08:06:52.288Z,1196
2017-01-18T08:07:52.298Z,1224
2017-01-18T08:08:52.355Z,1256
2017-01-18T08:09:52.323Z,1300
2017-01-18T08:10:52.347Z,1340
2017-01-18T08:11:52.354Z,1368
2017-01-18T08:12:52.362Z,1376
2017-01-18T08:13:52.372Z,1412
2017-01-18T08:14:52.389Z,1468
2017-01-18T08:15:52.400Z,1500
2017-01-18T08:17:22.253Z,1520
2017-01-18T08:17:52.429Z,1536
2017-01-18T08:18:52.440Z,1572
2017-01-18T08:19:52.450Z,1628
2017-01-18T08:20:52.464Z,1632
2017-01-18T08:22:07.396Z,1620
2017-01-18T08:22:52.488Z,1628
2017-01-18T08:24:07.420Z,1648
2017-01-18T08:24:52.519Z,1652
2017-01-18T08:25:52.539Z,1648
2017-01-18T08:26:52.540Z,1656
2017-01-18T08:28:07.473Z,1632
2017-01-18T08:28:52.565Z,1640
2017-01-18T08:30:07.498Z,1620
2017-01-18T08:30:52.601Z,1624
2017-01-18T08:31:52.608Z,1664
2017-01-18T08:32:52.619Z,1732
2017-01-18T08:34:52.645Z,1764
2017-01-18T08:35:52.658Z,1836
2017-01-18T08:36:52.667Z,1876
2017-01-18T08:37:52.679Z,1916
2017-01-18T08:38:52.695Z,1956
2017-01-18T08:39:52.710Z,2136
2017-01-18T08:40:52.720Z,1976
2017-01-18T08:42:52.748Z,1916
2017-01-18T08:43:52.759Z,1948
2017-01-18T08:45:07.690Z,1948
2017-01-18T08:45:52.809Z,1976
2017-01-18T08:46:52.798Z,1896
2017-01-18T08:47:52.812Z,1900
2017-01-18T08:49:07.739Z,1932
2017-01-18T08:49:52.841Z,1948
2017-01-18T08:50:52.848Z,1956
2017-01-18T08:51:52.862Z,1988
2017-01-18T08:52:52.881Z,2024
2017-01-18T08:53:52.887Z,2044
2017-01-18T08:54:52.925Z,2080
2017-01-18T08:56:52.931Z,2196
2017-01-18T08:57:52.938Z,2248
2017-01-18T08:58:52.956Z,2468
2017-01-18T08:59:52.964Z,2408
2017-01-18T09:02:53.009Z,2432
2017-01-18T09:03:53.040Z,2476
2017-01-18T09:05:07.952Z,2548
2017-01-18T09:05:53.045Z,2580
2017-01-18T09:06:53.061Z,2620
2017-01-18T09:07:53.067Z,2596
2017-01-18T09:09:08.693Z,2576
2017-01-18T09:09:53.097Z,2604
2017-01-18T09:10:53.108Z,2784
2017-01-18T09:11:53.123Z,2736
2017-01-18T09:12:53.134Z,2696
2017-01-18T09:13:53.150Z,2640
2017-01-18T09:15:08.079Z,2636
2017-01-18T09:16:53.211Z,2740
2017-01-18T09:17:53.203Z,2852
2017-01-18T09:18:53.214Z,2976
2017-01-18T09:19:53.228Z,3036
2017-01-18T09:21:08.163Z,3100
2017-01-18T09:21:53.252Z,3128
2017-01-18T09:22:53.269Z,3148
2017-01-18T09:23:53.281Z,3156
2017-01-18T09:24:53.296Z,3176
2017-01-18T09:25:53.307Z,3180
2017-01-18T09:27:08.238Z,3156
2017-01-18T09:27:53.336Z,3200
2017-01-18T09:29:08.263Z,3244
2017-01-18T09:29:53.360Z,3232
2017-01-18T09:31:08.292Z,3104
2017-01-18T09:31:53.389Z,3076
2017-01-18T09:32:53.400Z,3044
2017-01-18T09:33:53.414Z,2980
2017-01-18T09:34:53.428Z,2908
2017-01-18T09:35:53.439Z,2856
2017-01-18T09:37:08.370Z,2792
2017-01-18T09:37:53.467Z,2760
2017-01-18T09:38:53.480Z,2708
2017-01-18T09:39:53.492Z,2696
2017-01-18T09:40:53.508Z,2684
2017-01-18T09:41:53.522Z,2696
2017-01-18T09:43:08.451Z,2724
2017-01-18T09:43:53.547Z,2732
2017-01-18T09:45:53.572Z,2676
2017-01-18T09:46:53.588Z,2608
2017-01-18T09:49:08.530Z,2524
2017-01-18T09:49:53.627Z,2528
2017-01-18T09:50:53.643Z,2544
2017-01-18T09:52:08.575Z,2572
2017-01-18T09:52:53.666Z,2584
2017-01-18T09:54:53.694Z,2556
2017-01-18T09:55:53.708Z,2528
2017-01-18T09:56:53.722Z,2512
2017-01-18T09:57:53.734Z,2484
2017-01-18T09:59:08.670Z,2456
2017-01-18T09:59:53.763Z,2468
2017-01-18T10:00:53.776Z,2492
2017-01-18T10:02:54.190Z,2552
2017-01-18T10:03:53.823Z,2616
2017-01-18T10:04:53.836Z,2628
2017-01-18T10:05:53.848Z,2580
2017-01-18T10:06:53.888Z,2524
2017-01-18T10:07:53.876Z,2508
2017-01-18T10:08:53.884Z,2492
2017-01-18T10:09:53.898Z,2492
2017-01-18T10:10:53.913Z,2508
2017-01-18T10:11:53.924Z,2536
2017-01-18T10:12:53.939Z,2572
2017-01-18T10:13:53.951Z,2596
2017-01-18T10:14:53.966Z,2576
2017-01-18T10:15:53.982Z,2552
2017-01-18T10:16:53.994Z,2556
2017-01-18T10:18:54.026Z,2596
2017-01-18T10:20:08.950Z,2508
2017-01-18T10:20:54.049Z,2440
2017-01-18T10:21:54.061Z,2368
2017-01-18T10:22:54.080Z,2316
2017-01-18T10:24:09.004Z,2308
2017-01-18T10:24:54.101Z,2316
2017-01-18T10:25:54.115Z,2344
2017-01-18T10:26:54.128Z,2348
2017-01-18T10:27:54.442Z,2344
2017-01-18T10:28:54.157Z,2364
2017-01-18T10:31:09.100Z,2440
2017-01-18T10:32:54.210Z,2380
2017-01-18T10:36:09.167Z,2332
2017-01-18T10:36:54.264Z,2340
2017-01-18T10:37:54.280Z,2352
2017-01-18T10:38:54.294Z,2368
2017-01-18T10:40:09.225Z,2432
2017-01-18T10:40:54.334Z,2480
2017-01-18T10:41:54.333Z,2568
2017-01-18T10:42:54.348Z,2648
2017-01-18T10:43:54.362Z,2660
2017-01-18T10:44:54.376Z,2640
2017-01-18T10:45:54.387Z,2612
2017-01-18T10:47:09.319Z,2572
2017-01-18T10:48:54.436Z,2576
2017-01-18T10:49:54.441Z,2584
2017-01-18T10:51:09.375Z,2608
2017-01-18T10:51:54.502Z,2648
2017-01-18T10:53:54.497Z,2720
2017-01-18T10:54:54.511Z,2676
2017-01-18T10:56:24.363Z,2648
2017-01-18T10:56:54.541Z,2648
2017-01-18T10:57:54.554Z,2688
2017-01-18T10:58:54.567Z,2756
2017-01-18T10:59:54.578Z,2828
2017-01-18T11:00:54.599Z,2888
2017-01-18T11:02:54.623Z,2888
2017-01-18T11:03:54.640Z,2880
2017-01-18T11:04:54.667Z,2868
2017-01-18T11:05:54.664Z,2900
2017-01-18T11:06:54.680Z,2928
2017-01-18T11:07:54.694Z,2944
2017-01-18T11:09:54.720Z,2972
2017-01-18T11:10:54.730Z,2984
2017-01-18T11:12:09.665Z,3000
2017-01-18T11:12:54.757Z,2996
2017-01-18T11:13:54.780Z,3012
2017-01-18T11:14:54.789Z,3052
2017-01-18T11:15:54.801Z,3096
2017-01-18T11:17:09.733Z,3156
2017-01-18T11:17:54.829Z,3188
2017-01-18T11:18:54.844Z,3180
2017-01-18T11:19:54.858Z,3144
2017-01-18T11:21:09.791Z,3076
2017-01-18T11:22:54.904Z,3112
2017-01-18T11:23:54.914Z,3080
2017-01-18T11:24:54.927Z,3040
2017-01-18T11:25:54.943Z,2992
2017-01-18T11:27:09.876Z,2904
2017-01-18T11:27:54.967Z,2852
2017-01-18T11:28:54.984Z,2776
2017-01-18T11:29:54.997Z,2692
2017-01-18T11:30:55.013Z,2592
2017-01-18T11:32:09.944Z,2472
2017-01-18T11:32:55.038Z,2436
2017-01-18T11:33:55.055Z,2440
2017-01-18T11:34:55.074Z,2460
2017-01-18T11:36:55.099Z,2472
2017-01-18T11:37:55.109Z,2476
2017-01-18T11:38:55.123Z,2452
2017-01-18T11:40:55.162Z,2404
2017-01-18T11:41:55.171Z,2420
2017-01-18T11:42:55.180Z,2436
2017-01-18T11:43:55.194Z,2428
2017-01-18T11:44:55.209Z,2388
2017-01-18T11:45:55.222Z,2340
2017-01-18T11:47:10.156Z,2268
2017-01-18T11:48:10.175Z,2212
2017-01-18T11:48:55.265Z,2204
2017-01-18T11:51:10.208Z,2220
2017-01-18T11:51:55.303Z,2220
2017-01-18T11:52:55.322Z,2212
2017-01-18T11:53:55.338Z,2204
2017-01-18T11:55:10.269Z,2204
2017-01-18T11:55:55.363Z,2224
2017-01-18T11:56:55.380Z,2252
2017-01-18T11:57:55.389Z,2252
2017-01-18T11:59:10.323Z,2228
2017-01-18T12:00:55.434Z,2204
2017-01-18T12:01:55.443Z,2192
2017-01-18T12:02:55.459Z,2160
2017-01-18T12:03:55.479Z,2120
2017-01-18T12:04:55.487Z,2112
2017-01-18T12:06:10.420Z,2140
2017-01-18T12:06:55.519Z,2164
2017-01-18T12:07:55.538Z,2188
2017-01-18T12:08:55.547Z,2208
2017-01-18T12:10:55.572Z,2264
2017-01-18T12:11:55.589Z,2284
2017-01-18T12:12:55.599Z,2312
2017-01-18T12:13:55.617Z,2340
2017-01-18T12:15:10.545Z,2392
2017-01-18T12:15:55.672Z,2416
2017-01-18T12:16:55.654Z,2408
2017-01-18T12:17:55.670Z,2352
2017-01-18T12:18:55.687Z,2256
2017-01-18T12:20:10.616Z,2176
2017-01-18T12:20:55.711Z,2152
2017-01-18T12:21:55.729Z,2180
2017-01-18T12:22:55.742Z,2252
2017-01-18T12:23:55.755Z,2284
2017-01-18T12:25:55.788Z,2336
2017-01-18T12:27:55.812Z,2316
2017-01-18T12:28:55.823Z,2296
2017-01-18T12:29:55.843Z,2244
2017-01-18T12:31:10.772Z,2208
2017-01-18T12:31:55.867Z,2204
2017-01-18T12:32:55.883Z,2196
2017-01-18T12:33:55.897Z,2188
2017-01-18T12:34:55.907Z,2172
2017-01-18T12:35:55.922Z,2136
2017-01-18T12:37:10.855Z,2076
2017-01-18T12:37:55.958Z,2044
2017-01-18T12:38:55.965Z,2032
2017-01-18T12:39:55.980Z,2028
2017-01-18T12:40:55.996Z,2004
2017-01-18T12:41:56.004Z,1984
2017-01-18T12:42:56.023Z,2008
2017-01-18T12:43:56.186Z,2068
2017-01-18T12:44:56.080Z,2160
2017-01-18T12:45:56.063Z,2264
2017-01-18T12:47:10.995Z,2368
2017-01-18T12:47:56.092Z,2404
2017-01-18T12:48:56.106Z,2424
2017-01-18T12:49:56.129Z,2424
2017-01-18T12:50:56.133Z,2376
2017-01-18T12:51:56.148Z,2316
2017-01-18T12:52:56.160Z,2264
2017-01-18T12:53:56.210Z,2224
2017-01-18T12:54:56.192Z,2208
2017-01-18T12:55:56.209Z,2192
2017-01-18T12:57:11.138Z,2124
2017-01-18T12:57:56.239Z,2080
2017-01-18T12:58:56.249Z,2036
2017-01-18T12:59:56.259Z,1992
2017-01-18T13:00:56.277Z,1956
2017-01-18T13:02:56.305Z,1896
2017-01-18T13:03:56.318Z,1876
2017-01-18T13:04:56.336Z,1872
2017-01-18T13:05:56.353Z,1872
2017-01-18T13:06:56.663Z,1880
2017-01-18T13:07:56.377Z,1876
2017-01-18T13:08:56.399Z,1864
2017-01-18T13:09:56.404Z,1848
2017-01-18T13:10:56.414Z,1832
2017-01-18T13:11:56.430Z,1836
2017-01-18T13:12:56.444Z,1876
2017-01-18T13:13:56.459Z,1904
2017-01-18T13:14:56.479Z,1932
2017-01-18T13:15:56.489Z,1956
2017-01-18T13:16:56.504Z,1960
2017-01-18T13:17:56.518Z,1944
2017-01-18T13:18:56.530Z,1908
2017-01-18T13:19:56.545Z,1880
2017-01-18T13:20:56.591Z,1864
2017-01-18T13:21:56.571Z,1836
2017-01-18T13:22:56.973Z,1788
2017-01-18T13:23:56.605Z,1728
2017-01-18T13:24:56.616Z,1684
2017-01-18T13:25:56.633Z,1660
2017-01-18T13:26:56.670Z,1652
2017-01-18T13:28:56.679Z,1620
2017-01-18T13:30:11.606Z,1556
2017-01-18T13:30:56.703Z,1528
2017-01-18T13:31:56.719Z,1496
2017-01-18T13:32:56.735Z,1448
2017-01-18T13:34:11.665Z,1412
2017-01-18T13:34:56.764Z,1380
2017-01-18T13:35:56.773Z,1352
2017-01-18T13:36:56.786Z,1312
2017-01-18T13:37:56.801Z,1252
2017-01-18T13:38:56.817Z,1196
2017-01-18T13:39:56.830Z,1188
2017-01-18T13:40:56.843Z,1196
2017-01-18T13:42:56.875Z,1224
2017-01-18T13:43:56.888Z,1204
2017-01-18T13:44:56.904Z,1172
2017-01-18T13:46:11.830Z,1144
2017-01-18T13:46:56.930Z,1128
2017-01-18T13:47:56.938Z,1132
2017-01-18T13:48:56.989Z,1140
2017-01-18T13:50:11.890Z,1164
2017-01-18T13:50:56.988Z,1180
2017-01-18T13:51:57.001Z,1216
2017-01-18T13:52:57.013Z,1252
2017-01-18T13:53:57.028Z,1272
2017-01-18T13:54:57.046Z,1296
2017-01-18T13:55:57.050Z,1300
2017-01-18T13:56:57.071Z,1308
2017-01-18T13:58:11.998Z,1296
2017-01-18T13:58:57.101Z,1276
2017-01-18T13:59:57.109Z,1244
2017-01-18T14:01:12.044Z,1220
2017-01-18T14:01:57.137Z,1208
2017-01-18T14:02:57.153Z,1188
2017-01-18T14:03:57.166Z,1164
2017-01-18T14:04:57.183Z,1140
2017-01-18T14:06:12.109Z,1124
2017-01-18T14:06:57.210Z,1124
2017-01-18T14:07:57.225Z,1124
2017-01-18T14:08:57.254Z,1128
2017-01-18T14:09:57.250Z,1124
2017-01-18T14:10:57.263Z,1128
2017-01-18T14:11:57.278Z,1132
2017-01-18T14:12:57.295Z,1136
2017-01-18T14:13:57.307Z,1140
2017-01-18T14:14:57.321Z,1156
2017-01-18T14:15:57.337Z,1164
2017-01-18T14:17:12.269Z,1152
2017-01-18T14:18:57.378Z,1072
2017-01-18T14:19:57.392Z,1024
2017-01-18T14:20:57.409Z,988
2017-01-18T14:22:12.337Z,964
2017-01-18T14:22:57.433Z,952
2017-01-18T14:23:57.446Z,936
2017-01-18T14:24:57.463Z,928
2017-01-18T14:25:57.476Z,916
2017-01-18T14:26:57.487Z,900
2017-01-18T14:27:57.501Z,888
2017-01-18T14:28:57.512Z,876
2017-01-18T14:30:12.446Z,864
2017-01-18T14:30:57.541Z,860
2017-01-18T14:31:57.947Z,856
2017-01-18T14:32:57.574Z,844
2017-01-18T14:33:57.588Z,824
2017-01-18T14:34:57.605Z,804
2017-01-18T14:35:57.616Z,780
2017-01-18T14:37:12.545Z,764
2017-01-18T14:37:57.644Z,752
2017-01-18T14:38:57.657Z,732
2017-01-18T14:39:57.668Z,716
2017-01-18T14:40:57.714Z,700
2017-01-18T14:41:57.698Z,672
2017-01-18T14:42:57.711Z,648
2017-01-18T14:43:57.726Z,624
2017-01-18T14:44:57.740Z,596
2017-01-18T14:47:57.791Z,524
2017-01-18T14:50:12.726Z,476
2017-01-18T14:50:57.826Z,452
2017-01-18T14:51:57.844Z,440
2017-01-18T14:52:57.853Z,424
2017-01-18T14:53:57.865Z,420
2017-01-18T14:54:57.887Z,412
2017-01-18T14:55:57.891Z,412
2017-01-18T14:56:57.907Z,400
2017-01-18T14:58:12.840Z,380